createdAt,value
2018-12-07T00:00:32.370Z,100805.83
2018-12-07T00:03:01.282Z,100802.73
2018-12-07T00:05:30.199Z,100808.94
2018-12-07T00:07:59.119Z,100804.59
2018-12-07T00:10:28.038Z,100808.76
2018-12-07T00:12:56.959Z,100803.59
2018-12-07T00:15:25.876Z,100803.66
2018-12-07T00:17:54.811Z,100802.48
2018-12-07T00:20:23.724Z,100801.56
2018-12-07T00:22:52.644Z,100805.97
2018-12-07T00:25:21.566Z,100793.66
2018-12-07T00:27:50.490Z,100791.94
2018-12-07T00:30:19.513Z,100797.42
2018-12-07T00:32:48.433Z,100799.59
2018-12-07T00:35:17.338Z,100791.69
2018-12-07T00:37:46.291Z,100798.84
2018-12-07T00:40:15.193Z,100794.97
2018-12-07T00:42:44.134Z,100796.03
2018-12-07T00:45:13.051Z,100790.30
2018-12-07T00:47:42.025Z,100792.78
2018-12-07T00:50:10.943Z,100791.76
2018-12-07T00:52:39.887Z,100785.17
2018-12-07T00:55:18.710Z,100783.85
2018-12-07T00:57:47.642Z,100783.32
2018-12-07T01:00:16.566Z,100783.85
2018-12-07T01:02:45.480Z,100777.05
2018-12-07T01:05:14.385Z,100774.27
2018-12-07T01:07:43.306Z,100763.88
2018-12-07T01:10:12.246Z,100761.30
2018-12-07T01:12:41.159Z,100762.54
2018-12-07T01:15:10.082Z,100765.80
2018-12-07T01:17:38.989Z,100755.05
2018-12-07T01:20:08.046Z,100763.56
2018-12-07T01:22:37.033Z,100757.37
2018-12-07T01:25:06.229Z,100761.64
2018-12-07T01:27:35.150Z,100762.03
2018-12-07T01:30:04.098Z,100754.05
2018-12-07T01:32:33.014Z,100745.30
2018-12-07T01:35:01.934Z,100743.13
2018-12-07T01:37:30.868Z,100740.63
2018-12-07T01:39:59.814Z,100746.30
2018-12-07T01:42:28.812Z,100746.69
2018-12-07T01:44:57.736Z,100753.80
2018-12-07T01:47:26.640Z,100754.34
2018-12-07T01:49:55.561Z,100742.66
2018-12-07T01:52:24.486Z,100740.17
2018-12-07T01:54:53.393Z,100744.73
2018-12-07T01:57:22.316Z,100740.16
2018-12-07T01:59:51.245Z,100741.77
2018-12-07T02:02:20.149Z,100740.62
2018-12-07T02:04:49.101Z,100743.86
2018-12-07T02:07:29.419Z,100745.95
2018-12-07T02:09:58.921Z,100746.48
2018-12-07T02:12:27.869Z,100751.89
2018-12-07T02:14:56.783Z,100750.36
2018-12-07T02:17:25.698Z,100740.81
2018-12-07T02:19:54.606Z,100745.48
2018-12-07T02:22:23.533Z,100752.06
2018-12-07T02:24:52.445Z,100747.86
2018-12-07T02:27:21.357Z,100755.77
2018-12-07T02:29:50.268Z,100755.44
2018-12-07T02:32:19.218Z,100757.25
2018-12-07T02:34:48.131Z,100760.61
2018-12-07T02:37:17.042Z,100766.99
2018-12-07T02:39:45.986Z,100764.65
2018-12-07T02:42:14.886Z,100764.65
2018-12-07T02:44:43.789Z,100757.47
2018-12-07T02:47:12.688Z,100758.39
2018-12-07T02:49:41.598Z,100756.55
2018-12-07T02:52:10.512Z,100763.21
2018-12-07T02:54:39.417Z,100766.63
2018-12-07T02:57:08.320Z,100767.55
2018-12-07T02:59:37.282Z,100769.41
2018-12-07T03:02:06.653Z,100772.59
2018-12-07T03:04:35.590Z,100778.79
2018-12-07T03:07:04.498Z,100781.42
2018-12-07T03:09:33.427Z,100775.77
2018-12-07T03:12:02.344Z,100782.87
2018-12-07T03:14:31.269Z,100781.17
2018-12-07T03:17:00.177Z,100779.52
2018-12-07T03:19:29.089Z,100779.76
2018-12-07T03:21:57.998Z,100771.61
2018-12-07T03:24:26.903Z,100770.85
2018-12-07T03:26:55.805Z,100774.94
2018-12-07T03:29:24.732Z,100774.94
2018-12-07T03:31:53.648Z,100771.12
2018-12-07T03:34:22.579Z,100773.53
2018-12-07T03:36:51.492Z,100768.33
2018-12-07T03:39:20.677Z,100755.30
2018-12-07T03:41:49.593Z,100758.39
2018-12-07T03:44:18.509Z,100762.64
2018-12-07T03:46:47.424Z,100769.42
2018-12-07T03:49:16.332Z,100761.76
2018-12-07T03:51:45.259Z,100754.13
2018-12-07T03:54:14.190Z,100768.44
2018-12-07T03:56:43.107Z,100775.99
2018-12-07T03:59:12.018Z,100777.47
2018-12-07T04:01:40.962Z,100779.70
2018-12-07T04:04:09.882Z,100782.53
2018-12-07T04:06:38.808Z,100773.78
2018-12-07T04:09:08.680Z,100778.92
2018-12-07T04:11:37.598Z,100782.86
2018-12-07T04:14:06.521Z,100786.81
2018-12-07T04:16:35.427Z,100779.50
2018-12-07T04:19:04.353Z,100781.17
2018-12-07T04:21:33.278Z,100780.45
2018-12-07T04:24:02.193Z,100781.46
2018-12-07T04:26:31.112Z,100784.09
2018-12-07T04:29:00.020Z,100781.17
2018-12-07T04:31:28.932Z,100772.19
2018-12-07T04:33:57.853Z,100764.20
2018-12-07T04:36:26.747Z,100771.86
2018-12-07T04:38:55.671Z,100782.77
2018-12-07T04:41:24.603Z,100775.28
2018-12-07T04:43:53.525Z,100778.83
2018-12-07T04:46:22.558Z,100780.55
2018-12-07T04:48:51.474Z,100788.42
2018-12-07T04:51:20.398Z,100789.98
2018-12-07T04:53:49.327Z,100789.86
2018-12-07T04:56:18.231Z,100788.88
2018-12-07T04:58:47.175Z,100788.25
2018-12-07T05:01:16.094Z,100788.25
2018-12-07T05:03:45.023Z,100779.97
2018-12-07T05:06:13.935Z,100793.91
2018-12-07T05:08:42.841Z,100797.85
2018-12-07T05:11:11.754Z,100782.75
2018-12-07T05:13:40.674Z,100795.33
2018-12-07T05:16:09.569Z,100791.65
2018-12-07T05:18:38.499Z,100789.64
2018-12-07T05:21:07.417Z,100786.49
2018-12-07T05:23:36.333Z,100762.95
2018-12-07T05:26:05.242Z,100769.45
2018-12-07T05:28:34.161Z,100773.23
2018-12-07T05:31:03.069Z,100766.27
2018-12-07T05:33:31.996Z,100770.73
2018-12-07T05:36:00.902Z,100775.47
2018-12-07T05:38:29.822Z,100775.86
2018-12-07T05:40:58.745Z,100785.41
2018-12-07T05:43:27.715Z,100790.44
2018-12-07T05:45:56.628Z,100801.39
2018-12-07T05:48:25.549Z,100797.55
2018-12-07T05:50:54.437Z,100794.13
2018-12-07T05:53:23.433Z,100796.61
2018-12-07T05:55:52.329Z,100794.33
2018-12-07T05:58:21.221Z,100787.94
2018-12-07T06:00:50.156Z,100800.34
2018-12-07T06:03:19.082Z,100793.30
2018-12-07T06:05:47.996Z,100795.63
2018-12-07T06:08:16.903Z,100790.30
2018-12-07T06:10:45.822Z,100794.64
2018-12-07T06:13:14.748Z,100785.82
2018-12-07T06:15:43.681Z,100781.26
2018-12-07T06:18:12.603Z,100780.94
2018-12-07T06:20:41.572Z,100768.37
2018-12-07T06:23:10.482Z,100767.83
2018-12-07T06:25:39.430Z,100766.05
2018-12-07T06:28:08.361Z,100769.91
2018-12-07T06:30:37.304Z,100754.27
2018-12-07T06:33:06.203Z,100742.99
2018-12-07T06:35:35.141Z,100749.91
2018-12-07T06:38:04.053Z,100750.11
2018-12-07T06:40:32.983Z,100747.27
2018-12-07T06:43:01.895Z,100754.45
2018-12-07T06:45:30.829Z,100762.91
2018-12-07T06:47:59.743Z,100761.23
2018-12-07T06:50:28.689Z,100767.10
2018-12-07T06:52:57.593Z,100760.36
2018-12-07T06:55:26.532Z,100760.41
2018-12-07T06:57:55.455Z,100761.86
2018-12-07T07:00:24.383Z,100769.88
2018-12-07T07:02:53.313Z,100764.70
2018-12-07T07:05:22.248Z,100761.83
2018-12-07T07:07:51.189Z,100761.31
2018-12-07T07:10:20.138Z,100749.65
2018-12-07T07:12:49.060Z,100747.21
2018-12-07T07:15:17.989Z,100741.70
2018-12-07T07:17:46.917Z,100741.66
2018-12-07T07:20:15.840Z,100741.00
2018-12-07T07:22:44.777Z,100745.34
2018-12-07T07:25:13.700Z,100741.61
2018-12-07T07:27:42.605Z,100738.97
2018-12-07T07:30:11.721Z,100731.27
2018-12-07T07:32:40.641Z,100734.94
2018-12-07T07:35:09.608Z,100732.52
2018-12-07T07:37:38.525Z,100721.55
2018-12-07T07:40:07.454Z,100720.02
2018-12-07T07:42:36.376Z,100724.42
2018-12-07T07:45:05.674Z,100725.72
2018-12-07T07:47:34.576Z,100723.22
2018-12-07T07:50:03.538Z,100720.46
2018-12-07T07:52:32.443Z,100714.50
2018-12-07T07:55:01.352Z,100720.87
2018-12-07T07:57:30.253Z,100713.80
2018-12-07T07:59:59.178Z,100715.73
2018-12-07T08:02:29.202Z,100708.83
2018-12-07T08:04:58.318Z,100714.62
2018-12-07T08:07:27.213Z,100708.95
2018-12-07T08:09:56.139Z,100713.89
2018-12-07T08:12:25.037Z,100711.63
2018-12-07T08:14:53.948Z,100714.23
2018-12-07T08:17:22.862Z,100701.30
2018-12-07T08:19:51.818Z,100701.30
2018-12-07T08:22:20.727Z,100707.80
2018-12-07T08:24:49.625Z,100710.27
2018-12-07T08:27:18.523Z,100710.27
2018-12-07T08:29:47.441Z,100705.83
2018-12-07T08:32:16.346Z,100706.98
2018-12-07T08:34:45.271Z,100702.53
2018-12-07T08:37:14.166Z,100690.82
2018-12-07T08:39:43.083Z,100694.22
2018-12-07T08:42:11.995Z,100694.37
2018-12-07T08:44:40.900Z,100685.72
2018-12-07T08:47:09.805Z,100679.00
2018-12-07T08:49:43.827Z,100672.31
2018-12-07T08:52:12.737Z,100681.40
2018-12-07T08:54:41.674Z,100665.88
2018-12-07T08:57:10.574Z,100665.14
2018-12-07T08:59:39.474Z,100655.85
2018-12-07T09:02:08.404Z,100649.22
2018-12-07T09:04:37.310Z,100648.99
2018-12-07T09:07:06.210Z,100637.08
2018-12-07T09:09:35.119Z,100636.56
2018-12-07T09:12:04.029Z,100634.75
2018-12-07T09:14:32.941Z,100631.73
2018-12-07T09:17:02.078Z,100628.71
2018-12-07T09:19:30.984Z,100614.50
2018-12-07T09:21:59.904Z,100602.50
2018-12-07T09:24:28.850Z,100602.37
2018-12-07T09:26:57.769Z,100593.48
2018-12-07T09:29:26.670Z,100594.75
2018-12-07T09:31:55.657Z,100591.77
2018-12-07T09:34:24.550Z,100585.99
2018-12-07T09:36:53.533Z,100585.62
2018-12-07T09:39:22.450Z,100588.20
2018-12-07T09:41:51.396Z,100587.25
2018-12-07T09:44:20.316Z,100589.36
2018-12-07T09:46:49.232Z,100591.50
2018-12-07T09:49:18.169Z,100588.81
2018-12-07T09:51:47.170Z,100591.33
2018-12-07T09:54:16.083Z,100593.41
2018-12-07T09:56:44.984Z,100590.27
2018-12-07T09:59:14.071Z,100580.78
2018-12-07T10:01:43.011Z,100575.55
2018-12-07T10:04:11.922Z,100580.23
2018-12-07T10:06:40.949Z,100577.69
2018-12-07T10:09:09.921Z,100574.17
2018-12-07T10:11:38.868Z,100559.37
2018-12-07T10:14:07.773Z,100563.66
2018-12-07T10:16:36.710Z,100560.80
2018-12-07T10:19:05.605Z,100553.71
2018-12-07T10:21:34.522Z,100555.36
2018-12-07T10:24:03.444Z,100550.19
2018-12-07T10:26:32.362Z,100553.21
2018-12-07T10:29:01.269Z,100543.72
2018-12-07T10:31:30.174Z,100541.27
2018-12-07T10:33:59.079Z,100538.03
2018-12-07T10:36:28.083Z,100542.11
2018-12-07T10:38:56.977Z,100535.94
2018-12-07T10:41:25.890Z,100539.52
2018-12-07T10:43:54.851Z,100533.79
2018-12-07T10:46:23.827Z,100535.09
2018-12-07T10:48:52.853Z,100530.19
2018-12-07T10:51:21.787Z,100529.08
2018-12-07T10:53:50.698Z,100532.66
2018-12-07T10:56:19.627Z,100529.34
2018-12-07T10:58:48.527Z,100525.42
2018-12-07T11:01:22.685Z,100522.25
2018-12-07T11:03:56.599Z,100530.73
2018-12-07T11:06:30.544Z,100529.96
2018-12-07T11:09:06.397Z,100533.09
2018-12-07T11:13:43.956Z,100535.64
2018-12-07T11:16:17.945Z,100522.56
2018-12-07T11:18:51.817Z,100520.75
2018-12-07T11:22:26.204Z,100518.09
2018-12-07T11:25:00.171Z,100513.20
2018-12-07T11:27:34.049Z,100513.83
2018-12-07T11:31:05.788Z,100521.42
2018-12-07T11:33:38.763Z,100521.42
2018-12-07T11:36:08.251Z,100528.83
2018-12-07T11:38:37.474Z,100532.78
2018-12-07T11:41:06.378Z,100530.55
2018-12-07T11:43:35.292Z,100525.86
2018-12-07T11:46:04.193Z,100521.36
2018-12-07T11:48:33.108Z,100521.59
2018-12-07T11:51:02.034Z,100524.75
2018-12-07T11:53:31.032Z,100524.16
2018-12-07T11:56:00.600Z,100521.87
2018-12-07T11:58:29.515Z,100507.19
2018-12-07T12:00:58.400Z,100499.61
2018-12-07T12:03:27.330Z,100506.62
2018-12-07T12:05:56.231Z,100447.60
2018-12-07T12:08:25.150Z,100490.20
2018-12-07T12:10:54.445Z,100488.13
2018-12-07T12:13:23.366Z,100484.25
2018-12-07T12:15:52.274Z,100488.34
2018-12-07T12:18:21.180Z,100481.62
2018-12-07T12:20:50.098Z,100474.44
2018-12-07T12:23:19.001Z,100462.25
2018-12-07T12:25:47.889Z,100458.14
2018-12-07T12:28:16.797Z,100452.78
2018-12-07T12:30:45.705Z,100444.15
2018-12-07T12:33:14.625Z,100444.63
2018-12-07T12:35:43.550Z,100438.38
2018-12-07T12:38:12.478Z,100427.58
2018-12-07T12:40:41.392Z,100423.81
2018-12-07T12:43:10.360Z,100422.85
2018-12-07T12:45:39.290Z,100417.47
2018-12-07T12:48:08.194Z,100414.22
2018-12-07T12:50:37.314Z,100401.92
2018-12-07T12:53:06.684Z,100401.21
2018-12-07T12:55:35.660Z,100400.75
2018-12-07T12:58:04.584Z,100407.86
2018-12-07T13:00:33.539Z,100406.27
2018-12-07T13:03:02.475Z,100410.74
2018-12-07T13:05:31.500Z,100400.94
2018-12-07T13:08:00.430Z,100406.91
2018-12-07T13:10:29.346Z,100395.14
2018-12-07T13:12:58.265Z,100397.32
2018-12-07T13:15:27.230Z,100390.94
2018-12-07T13:17:56.154Z,100384.41
2018-12-07T13:20:25.097Z,100380.32
2018-12-07T13:22:54.006Z,100384.08
2018-12-07T13:25:23.002Z,100374.31
2018-12-07T13:27:51.926Z,100375.42
2018-12-07T13:30:20.857Z,100374.80
2018-12-07T13:32:49.823Z,100365.98
2018-12-07T13:35:18.828Z,100365.83
2018-12-07T13:37:47.791Z,100359.81
2018-12-07T13:40:16.737Z,100367.12
2018-12-07T13:42:45.802Z,100365.95
2018-12-07T13:45:14.863Z,100371.63
2018-12-07T13:47:43.958Z,100372.09
2018-12-07T13:50:18.006Z,100368.58
2018-12-07T13:52:46.986Z,100360.45
2018-12-07T13:55:16.237Z,100352.17
2018-12-07T13:57:45.187Z,100364.89
2018-12-07T14:00:14.294Z,100362.05
2018-12-07T14:02:43.373Z,100346.36
2018-12-07T14:05:12.394Z,100343.37
2018-12-07T14:07:41.431Z,100336.79
2018-12-07T14:10:10.559Z,100333.06
2018-12-07T14:12:39.522Z,100331.21
2018-12-07T14:15:08.617Z,100330.67
2018-12-07T14:17:37.709Z,100318.37
2018-12-07T14:20:07.388Z,100329.76
2018-12-07T14:22:36.438Z,100326.16
2018-12-07T14:25:05.688Z,100324.02
2018-12-07T14:27:34.684Z,100313.70
2018-12-07T14:30:03.879Z,100312.20
2018-12-07T14:32:32.915Z,100298.66
2018-12-07T14:35:01.913Z,100295.36
2018-12-07T14:37:30.982Z,100307.03
2018-12-07T14:39:59.958Z,100300.52
2018-12-07T14:42:28.932Z,100306.28
2018-12-07T14:44:58.100Z,100319.72
2018-12-07T14:47:27.073Z,100333.89
2018-12-07T14:49:56.085Z,100335.84
2018-12-07T14:52:25.163Z,100353.86
2018-12-07T14:54:54.205Z,100355.08
2018-12-07T14:57:23.242Z,100346.77
2018-12-07T14:59:52.199Z,100337.70
2018-12-07T15:02:21.290Z,100325.47
2018-12-07T15:04:50.305Z,100333.45
2018-12-07T15:07:19.193Z,100326.93
2018-12-07T15:09:48.322Z,100335.14
2018-12-07T15:12:17.368Z,100327.03
2018-12-07T15:14:46.438Z,100329.09
2018-12-07T15:17:15.476Z,100327.20
2018-12-07T15:19:44.652Z,100329.25
2018-12-07T15:22:13.655Z,100334.34
2018-12-07T15:24:42.700Z,100338.69
2018-12-07T15:27:11.795Z,100340.77
2018-12-07T15:29:40.774Z,100335.30
2018-12-07T15:32:09.787Z,100344.92
2018-12-07T15:34:38.746Z,100342.81
2018-12-07T15:37:07.893Z,100345.45
2018-12-07T15:39:36.876Z,100340.16
2018-12-07T15:42:06.039Z,100349.23
2018-12-07T15:44:35.124Z,100340.06
2018-12-07T15:47:04.214Z,100336.80
2018-12-07T15:49:33.246Z,100335.63
2018-12-07T15:52:02.373Z,100335.37
2018-12-07T15:54:31.416Z,100339.22
2018-12-07T15:57:00.526Z,100336.23
2018-12-07T15:59:34.502Z,100342.95
2018-12-07T16:02:00.564Z,100343.32
2018-12-07T16:04:29.748Z,100347.05
2018-12-07T16:06:58.694Z,100345.00
2018-12-07T16:09:27.725Z,100339.84
2018-12-07T16:11:56.863Z,100339.59
2018-12-07T16:14:25.984Z,100326.22
2018-12-07T16:16:55.244Z,100329.08
2018-12-07T16:19:24.498Z,100318.89
2018-12-07T16:21:54.453Z,100318.63
2018-12-07T16:24:23.526Z,100323.46
2018-12-07T16:26:52.540Z,100319.69
2018-12-07T16:29:21.765Z,100316.79
2018-12-07T16:31:50.790Z,100317.25
2018-12-07T16:34:19.806Z,100314.16
2018-12-07T16:36:48.875Z,100316.16
2018-12-07T16:39:17.951Z,100313.61
2018-12-07T16:41:47.231Z,100307.84
2018-12-07T16:44:16.314Z,100301.24
2018-12-07T16:46:45.448Z,100295.23
2018-12-07T16:49:14.636Z,100295.03
2018-12-07T16:51:43.831Z,100295.13
2018-12-07T16:54:13.041Z,100293.16
2018-12-07T16:56:42.263Z,100287.87
2018-12-07T16:59:11.295Z,100286.36
2018-12-07T17:01:40.323Z,100289.09
2018-12-07T17:04:40.280Z,100287.13
2018-12-07T17:07:09.439Z,100286.17
2018-12-07T17:09:38.529Z,100289.02
2018-12-07T17:12:07.533Z,100281.37
2018-12-07T17:14:36.484Z,100286.39
2018-12-07T17:17:05.633Z,100281.28
2018-12-07T17:19:34.619Z,100272.05
2018-12-07T17:22:03.673Z,100269.24
2018-12-07T17:24:32.840Z,100253.97
2018-12-07T17:27:01.869Z,100249.25
2018-12-07T17:29:30.924Z,100249.34
2018-12-07T17:32:00.139Z,100256.03
2018-12-07T17:34:29.292Z,100254.80
2018-12-07T17:36:58.511Z,100249.27
2018-12-07T17:39:27.754Z,100242.75
2018-12-07T17:41:56.828Z,100251.13
2018-12-07T17:44:26.094Z,100247.09
2018-12-07T17:46:55.482Z,100247.58
2018-12-07T17:49:26.778Z,100240.48
2018-12-07T17:51:56.719Z,100236.16
2018-12-07T17:54:25.675Z,100235.13
2018-12-07T17:56:54.820Z,100222.97
2018-12-07T17:59:24.901Z,100225.34
2018-12-07T18:01:53.903Z,100221.95
2018-12-07T18:04:22.833Z,100219.69
2018-12-07T18:06:54.869Z,100213.85
2018-12-07T18:09:24.211Z,100211.94
2018-12-07T18:11:53.450Z,100213.36
2018-12-07T18:14:22.626Z,100212.33
2018-12-07T18:16:51.717Z,100206.50
2018-12-07T18:19:20.833Z,100210.14
2018-12-07T18:21:49.831Z,100211.02
2018-12-07T18:24:18.914Z,100211.56
2018-12-07T18:26:47.974Z,100206.46
2018-12-07T18:29:17.251Z,100211.66
2018-12-07T18:31:53.085Z,100205.16
2018-12-07T18:34:22.114Z,100206.29
2018-12-07T18:36:51.215Z,100197.07
2018-12-07T18:39:21.111Z,100205.55
2018-12-07T18:41:50.311Z,100207.72
2018-12-07T18:44:19.384Z,100204.70
2018-12-07T18:46:48.642Z,100193.48
2018-12-07T18:49:17.922Z,100190.84
2018-12-07T18:51:48.497Z,100196.32
2018-12-07T18:54:17.739Z,100190.84
2018-12-07T18:56:46.869Z,100191.52
2018-12-07T18:59:15.904Z,100181.70
2018-12-07T19:01:45.088Z,100176.73
2018-12-07T19:04:14.136Z,100174.47
2018-12-07T19:06:43.249Z,100170.90
2018-12-07T19:09:12.431Z,100158.09
2018-12-07T19:11:41.472Z,100158.36
2018-12-07T19:14:11.494Z,100166.18
2018-12-07T19:16:40.579Z,100156.58
2018-12-07T19:19:09.632Z,100161.11
2018-12-07T19:21:38.746Z,100160.90
2018-12-07T19:24:08.774Z,100159.70
2018-12-07T19:26:37.757Z,100156.02
2018-12-07T19:29:06.749Z,100155.08
2018-12-07T19:31:36.030Z,100158.56
2018-12-07T19:34:05.005Z,100154.70
2018-12-07T19:36:34.024Z,100149.98
2018-12-07T19:39:03.106Z,100146.23
2018-12-07T19:41:32.146Z,100144.43
2018-12-07T19:44:01.301Z,100139.25
2018-12-07T19:46:30.473Z,100136.23
2018-12-07T19:48:59.623Z,100128.53
2018-12-07T19:55:00.430Z,100126.08
2018-12-07T19:57:29.584Z,100122.42
2018-12-07T19:59:58.654Z,100123.53
2018-12-07T20:02:27.629Z,100122.50
2018-12-07T20:04:56.783Z,100111.02
2018-12-07T20:07:25.837Z,100105.20
2018-12-07T20:09:54.852Z,100100.88
2018-12-07T20:12:23.928Z,100100.66
2018-12-07T20:14:52.971Z,100102.18
2018-12-07T20:17:22.025Z,100105.84
2018-12-07T20:19:50.961Z,100099.45
2018-12-07T20:22:19.896Z,100090.41
2018-12-07T20:24:48.996Z,100092.58
2018-12-07T20:27:18.356Z,100099.64
2018-12-07T20:29:47.628Z,100094.66
2018-12-07T20:32:16.872Z,100096.61
2018-12-07T20:34:46.319Z,100087.50
2018-12-07T20:37:23.250Z,100089.92
2018-12-07T20:39:52.318Z,100093.12
2018-12-07T20:42:21.834Z,100087.48
2018-12-07T20:44:51.130Z,100084.48
2018-12-07T20:47:24.668Z,100082.03
2018-12-07T20:49:51.063Z,100076.38
2018-12-07T20:52:20.137Z,100067.36
2018-12-07T20:54:49.375Z,100051.80
2018-12-07T20:57:18.447Z,100042.95
2018-12-07T20:59:47.561Z,100037.77
2018-12-07T21:02:16.556Z,100041.09
2018-12-07T21:04:45.930Z,100034.98
2018-12-07T21:07:34.196Z,100029.52
2018-12-07T21:10:19.670Z,100024.62
2018-12-07T21:13:30.219Z,100024.91
2018-12-07T21:17:10.885Z,100024.98
2018-12-07T21:19:43.918Z,100024.44
2018-12-07T21:22:13.298Z,100022.07
2018-12-07T21:24:42.416Z,100018.60
2018-12-07T21:27:11.768Z,100015.21
2018-12-07T21:29:40.859Z,100013.87
2018-12-07T21:32:16.538Z,100019.90
2018-12-07T21:34:56.253Z,100013.87
2018-12-07T21:37:25.546Z,100008.44
2018-12-07T21:40:15.689Z,100009.00
2018-12-07T21:42:45.062Z,100000.25
2018-12-07T21:45:14.501Z,99993.66
2018-12-07T21:48:16.590Z,99995.45
2018-12-07T21:50:48.549Z,99991.49
2018-12-07T21:53:17.819Z,99993.95
2018-12-07T21:55:47.239Z,99994.11
2018-12-07T21:58:16.774Z,99991.09
2018-12-07T22:00:45.988Z,99980.02
2018-12-07T22:03:15.198Z,99987.52
2018-12-07T22:05:44.963Z,99981.39
2018-12-07T22:08:14.379Z,99980.95
2018-12-07T22:10:43.607Z,99976.63
2018-12-07T22:13:12.950Z,99970.41
2018-12-07T22:15:42.303Z,99963.98
2018-12-07T22:18:11.485Z,99961.16
2018-12-07T22:20:47.084Z,99956.58
2018-12-07T22:23:16.348Z,99953.44
2018-12-07T22:25:45.619Z,99954.41
2018-12-07T22:28:15.162Z,99952.62
2018-12-07T22:30:44.638Z,99947.25
2018-12-07T22:33:13.826Z,99941.23
2018-12-07T22:35:43.105Z,99931.03
2018-12-07T22:38:12.451Z,99937.63
2018-12-07T22:40:41.639Z,99940.48
2018-12-07T22:43:11.164Z,99942.55
2018-12-07T22:45:40.456Z,99937.84
2018-12-07T22:48:09.650Z,99934.64
2018-12-07T22:50:38.826Z,99931.09
2018-12-07T22:53:07.986Z,99926.03
2018-12-07T22:55:37.122Z,99924.92
2018-12-07T22:58:06.236Z,99924.30
2018-12-07T23:00:35.367Z,99917.92
2018-12-07T23:03:04.493Z,99916.41
2018-12-07T23:05:33.621Z,99916.87
2018-12-07T23:08:02.743Z,99906.17
2018-12-07T23:10:31.851Z,99906.54
2018-12-07T23:13:00.962Z,99908.80
2018-12-07T23:15:30.059Z,99903.91
2018-12-07T23:17:59.185Z,99908.14
2018-12-07T23:20:28.300Z,99900.34
2018-12-07T23:22:57.393Z,99902.42
2018-12-07T23:25:26.504Z,99897.23
2018-12-07T23:27:55.622Z,99898.28
2018-12-07T23:30:24.750Z,99899.59
2018-12-07T23:32:53.860Z,99899.80
2018-12-07T23:35:22.977Z,99902.77
2018-12-07T23:37:52.142Z,99906.25
2018-12-07T23:40:21.236Z,99904.47
2018-12-07T23:42:52.447Z,99907.01
2018-12-07T23:45:21.580Z,99899.95
2018-12-07T23:47:50.695Z,99902.03
2018-12-07T23:50:19.820Z,99889.71
2018-12-07T23:52:48.950Z,99896.20
2018-12-07T23:55:18.058Z,99895.83
2018-12-07T23:57:47.247Z,99897.52
